Sydney Kingsford Smith International Airport
YSSY : now visible

Airfield :











YOU CAN JOIN US ON...

 
LOGIN :

Register | Disclaimer

   EN    FR    IT 

 









Legend :    VFR   Marginal VFR   IFR   Intensive IFR   Very Intensive IFR
Visi :
Ceiling :
>= 8 km
>= 3000ft
5 to 8 km
1000 to 3000 ft
1500m to 5 km
500 to 1000 ft
800 to 1500m
200 to 500 ft
< 800m
< 200 ft
Symbols :   Thunderstorms  Fog  Heavy snow  Heavy precipitations  Wind > 20 kt







- Airport Elevation : 21 ft
- IATA code : SYD


YSSY - Sydney Kingsford Smith International

CURRENT METAR :
  • 161900Z 03003KT 9999 FEW020 21/17 Q1014

EXPIRED METARs :
  • 161830Z 35003KT CAVOK 21/17 Q1014 NOSIG
  • 161800Z 31003KT CAVOK 21/18 Q1014
  • 161730Z 30004KT CAVOK 21/17 Q1014 NOSIG
  • 161700Z 31004KT CAVOK 21/17 Q1014 NOSIG
  • 161630Z 30004KT CAVOK 21/17 Q1014 NOSIG

TAF TAF YSSY
Valid from the 16 at 18:00 until the 18 at 00:00 UTC


161632Z 1618/1724 33008KT CAVOK
FM162300 01010KT CAVOK
FM170300 04018KT CAVOK
FM170900 01015KT CAVOK
FM171300 01008KT CAVOK
YMMM FIR / Oceania



MET'MAP, your aeronautical weather chart ! - Copyright ORBIFLY December 2007 - Disclaimer

ORBIFLY MET'MAP TEAM :

Programming & Development : Alexandra Zaïnal
Concept & Development : Baudouin d'Aumeries
Co-Development & Prog : Marc-Olivier Méhu
Technical & hardware support : Manuel Goepfert

Contact : metmap@orbifly.com




SOURCES & CREDITS :

   NOAA       Earth
Advisory